sensor_id;sensor_type;location;lat;lon;timestamp;temperature;humidity
36552;DHT22;22559;54.176;12.102;2023-04-07T00:00:37;3.90;99.90
36552;DHT22;22559;54.176;12.102;2023-04-07T00:03:03;3.90;99.90
36552;DHT22;22559;54.176;12.102;2023-04-07T00:05:33;3.90;99.90
36552;DHT22;22559;54.176;12.102;2023-04-07T00:07:59;3.90;99.90
36552;DHT22;22559;54.176;12.102;2023-04-07T00:10:24;3.90;99.90
36552;DHT22;22559;54.176;12.102;2023-04-07T00:12:50;3.80;99.90
36552;DHT22;22559;54.176;12.102;2023-04-07T00:15:16;3.80;99.90
36552;DHT22;22559;54.176;12.102;2023-04-07T00:17:42;3.80;99.90
36552;DHT22;22559;54.176;12.102;2023-04-07T00:20:08;3.70;99.90
36552;DHT22;22559;54.176;12.102;2023-04-07T00:22:33;3.70;99.90
36552;DHT22;22559;54.176;12.102;2023-04-07T00:24:59;3.70;99.90
36552;DHT22;22559;54.176;12.102;2023-04-07T00:27:28;3.70;99.90
36552;DHT22;22559;54.176;12.102;2023-04-07T00:29:54;3.70;99.90
36552;DHT22;22559;54.176;12.102;2023-04-07T00:32:21;3.70;99.90
36552;DHT22;22559;54.176;12.102;2023-04-07T00:34:49;3.60;99.90
36552;DHT22;22559;54.176;12.102;2023-04-07T00:37:15;3.60;99.90
36552;DHT22;22559;54.176;12.102;2023-04-07T00:39:40;3.60;99.90
36552;DHT22;22559;54.176;12.102;2023-04-07T00:42:09;3.50;99.90
36552;DHT22;22559;54.176;12.102;2023-04-07T00:44:36;3.50;99.90
36552;DHT22;22559;54.176;12.102;2023-04-07T00:47:01;3.50;99.90
36552;DHT22;22559;54.176;12.102;2023-04-07T00:49:27;3.50;99.90
36552;DHT22;22559;54.176;12.102;2023-04-07T00:51:54;3.50;99.90
36552;DHT22;22559;54.176;12.102;2023-04-07T00:54:23;3.50;99.90
36552;DHT22;22559;54.176;12.102;2023-04-07T00:56:50;3.50;99.90
36552;DHT22;22559;54.176;12.102;2023-04-07T00:59:17;3.50;99.90
36552;DHT22;22559;54.176;12.102;2023-04-07T01:04:52;3.50;99.90
36552;DHT22;22559;54.176;12.102;2023-04-07T01:07:25;3.50;99.90
36552;DHT22;22559;54.176;12.102;2023-04-07T01:09:58;3.50;99.90
36552;DHT22;22559;54.176;12.102;2023-04-07T01:15:30;3.40;99.90
36552;DHT22;22559;54.176;12.102;2023-04-07T01:18:42;3.40;99.90
36552;DHT22;22559;54.176;12.102;2023-04-07T01:20:50;3.30;99.90
36552;DHT22;22559;54.176;12.102;2023-04-07T01:26:22;3.30;99.90
36552;DHT22;22559;54.176;12.102;2023-04-07T01:31:25;3.20;99.90
36552;DHT22;22559;54.176;12.102;2023-04-07T01:33:51;3.20;99.90
36552;DHT22;22559;54.176;12.102;2023-04-07T01:36:18;3.10;99.90
36552;DHT22;22559;54.176;12.102;2023-04-07T01:38:46;3.10;99.90
36552;DHT22;22559;54.176;12.102;2023-04-07T01:41:14;3.00;99.90
36552;DHT22;22559;54.176;12.102;2023-04-07T01:43:42;3.00;99.90
36552;DHT22;22559;54.176;12.102;2023-04-07T01:46:08;3.10;99.90
36552;DHT22;22559;54.176;12.102;2023-04-07T01:48:34;3.00;99.90
36552;DHT22;22559;54.176;12.102;2023-04-07T01:51:03;3.00;99.90
36552;DHT22;22559;54.176;12.102;2023-04-07T01:53:29;3.00;99.90
36552;DHT22;22559;54.176;12.102;2023-04-07T01:55:55;3.00;99.90
36552;DHT22;22559;54.176;12.102;2023-04-07T01:58:21;3.10;99.90
36552;DHT22;22559;54.176;12.102;2023-04-07T02:00:47;3.00;99.90
36552;DHT22;22559;54.176;12.102;2023-04-07T02:03:19;3.00;99.90
36552;DHT22;22559;54.176;12.102;2023-04-07T02:05:51;3.00;99.90
36552;DHT22;22559;54.176;12.102;2023-04-07T02:08:20;3.00;99.90
36552;DHT22;22559;54.176;12.102;2023-04-07T02:10:47;2.90;99.90
36552;DHT22;22559;54.176;12.102;2023-04-07T02:13:15;2.90;99.90
36552;DHT22;22559;54.176;12.102;2023-04-07T02:15:43;2.90;99.90
36552;DHT22;22559;54.176;12.102;2023-04-07T02:18:12;2.90;99.90
36552;DHT22;22559;54.176;12.102;2023-04-07T02:20:40;3.00;99.90
36552;DHT22;22559;54.176;12.102;2023-04-07T02:23:07;3.00;99.90
36552;DHT22;22559;54.176;12.102;2023-04-07T02:25:33;3.00;99.90
36552;DHT22;22559;54.176;12.102;2023-04-07T02:27:59;2.90;99.90
36552;DHT22;22559;54.176;12.102;2023-04-07T02:30:26;3.00;99.90
36552;DHT22;22559;54.176;12.102;2023-04-07T02:32:52;3.00;99.90
36552;DHT22;22559;54.176;12.102;2023-04-07T02:35:18;3.00;99.90
36552;DHT22;22559;54.176;12.102;2023-04-07T02:37:44;3.00;99.90
36552;DHT22;22559;54.176;12.102;2023-04-07T02:40:11;3.00;99.90
36552;DHT22;22559;54.176;12.102;2023-04-07T02:42:37;3.00;99.90
36552;DHT22;22559;54.176;12.102;2023-04-07T02:45:04;3.00;99.90
36552;DHT22;22559;54.176;12.102;2023-04-07T02:47:30;3.00;99.90
36552;DHT22;22559;54.176;12.102;2023-04-07T02:49:56;3.10;99.90
36552;DHT22;22559;54.176;12.102;2023-04-07T02:52:21;3.10;99.90
36552;DHT22;22559;54.176;12.102;2023-04-07T02:54:47;3.10;99.90
36552;DHT22;22559;54.176;12.102;2023-04-07T02:57:12;3.00;99.90
36552;DHT22;22559;54.176;12.102;2023-04-07T02:59:39;3.00;99.90
36552;DHT22;22559;54.176;12.102;2023-04-07T03:02:05;3.10;99.90
36552;DHT22;22559;54.176;12.102;2023-04-07T03:04:31;3.10;99.90
36552;DHT22;22559;54.176;12.102;2023-04-07T03:06:57;3.10;99.90
36552;DHT22;22559;54.176;12.102;2023-04-07T03:09:23;3.00;99.90
36552;DHT22;22559;54.176;12.102;2023-04-07T03:11:48;3.00;99.90
36552;DHT22;22559;54.176;12.102;2023-04-07T03:14:14;3.00;99.90
36552;DHT22;22559;54.176;12.102;2023-04-07T03:16:40;3.00;99.90
36552;DHT22;22559;54.176;12.102;2023-04-07T03:19:06;2.90;99.90
36552;DHT22;22559;54.176;12.102;2023-04-07T03:21:33;2.90;99.90
36552;DHT22;22559;54.176;12.102;2023-04-07T03:23:59;2.80;99.90
36552;DHT22;22559;54.176;12.102;2023-04-07T03:26:25;2.80;99.90
36552;DHT22;22559;54.176;12.102;2023-04-07T03:28:50;2.80;99.90
36552;DHT22;22559;54.176;12.102;2023-04-07T03:31:16;2.80;99.90
36552;DHT22;22559;54.176;12.102;2023-04-07T03:33:42;2.80;99.90
36552;DHT22;22559;54.176;12.102;2023-04-07T03:36:07;2.80;99.90
36552;DHT22;22559;54.176;12.102;2023-04-07T03:38:33;2.70;99.90
36552;DHT22;22559;54.176;12.102;2023-04-07T03:40:58;2.70;99.90
36552;DHT22;22559;54.176;12.102;2023-04-07T03:43:24;2.80;99.90
36552;DHT22;22559;54.176;12.102;2023-04-07T03:45:52;2.70;99.90
36552;DHT22;22559;54.176;12.102;2023-04-07T03:48:18;2.70;99.90
36552;DHT22;22559;54.176;12.102;2023-04-07T03:50:45;2.70;99.90
36552;DHT22;22559;54.176;12.102;2023-04-07T03:53:11;2.60;99.90
36552;DHT22;22559;54.176;12.102;2023-04-07T03:55:39;2.70;99.90
36552;DHT22;22559;54.176;12.102;2023-04-07T03:58:06;2.60;99.90
36552;DHT22;22559;54.176;12.102;2023-04-07T04:00:31;2.60;99.90
36552;DHT22;22559;54.176;12.102;2023-04-07T04:02:58;2.50;99.90
36552;DHT22;22559;54.176;12.102;2023-04-07T04:05:24;2.50;99.90
36552;DHT22;22559;54.176;12.102;2023-04-07T04:07:50;2.60;99.90
36552;DHT22;22559;54.176;12.102;2023-04-07T04:10:20;2.50;99.90
36552;DHT22;22559;54.176;12.102;2023-04-07T04:12:46;2.60;99.90
36552;DHT22;22559;54.176;12.102;2023-04-07T04:15:13;2.50;99.90
36552;DHT22;22559;54.176;12.102;2023-04-07T04:17:39;2.50;99.90
36552;DHT22;22559;54.176;12.102;2023-04-07T04:20:06;2.50;99.90
36552;DHT22;22559;54.176;12.102;2023-04-07T04:22:32;2.50;99.90
36552;DHT22;22559;54.176;12.102;2023-04-07T04:24:59;2.50;99.90
36552;DHT22;22559;54.176;12.102;2023-04-07T04:27:25;2.50;99.90
36552;DHT22;22559;54.176;12.102;2023-04-07T04:29:50;2.40;99.90
36552;DHT22;22559;54.176;12.102;2023-04-07T04:32:16;2.40;99.90
36552;DHT22;22559;54.176;12.102;2023-04-07T04:34:42;2.40;99.90
36552;DHT22;22559;54.176;12.102;2023-04-07T04:37:08;2.30;99.90
36552;DHT22;22559;54.176;12.102;2023-04-07T04:39:34;2.20;99.90
36552;DHT22;22559;54.176;12.102;2023-04-07T04:41:59;2.30;99.90
36552;DHT22;22559;54.176;12.102;2023-04-07T04:44:26;2.20;99.90
36552;DHT22;22559;54.176;12.102;2023-04-07T04:46:52;2.20;99.90
36552;DHT22;22559;54.176;12.102;2023-04-07T04:49:17;2.20;99.90
36552;DHT22;22559;54.176;12.102;2023-04-07T04:51:44;2.20;99.90
36552;DHT22;22559;54.176;12.102;2023-04-07T04:54:09;2.10;99.90
36552;DHT22;22559;54.176;12.102;2023-04-07T04:56:35;2.10;99.90
36552;DHT22;22559;54.176;12.102;2023-04-07T04:59:02;2.20;99.90
36552;DHT22;22559;54.176;12.102;2023-04-07T05:01:28;2.20;99.90
36552;DHT22;22559;54.176;12.102;2023-04-07T05:03:53;2.30;99.90
36552;DHT22;22559;54.176;12.102;2023-04-07T05:06:19;2.30;99.90
36552;DHT22;22559;54.176;12.102;2023-04-07T05:08:45;2.40;99.90
36552;DHT22;22559;54.176;12.102;2023-04-07T05:11:11;2.50;99.90
36552;DHT22;22559;54.176;12.102;2023-04-07T05:13:37;2.50;99.90
36552;DHT22;22559;54.176;12.102;2023-04-07T05:16:03;2.60;99.90
36552;DHT22;22559;54.176;12.102;2023-04-07T05:18:28;2.60;99.90
36552;DHT22;22559;54.176;12.102;2023-04-07T05:20:54;2.60;99.90
36552;DHT22;22559;54.176;12.102;2023-04-07T05:23:20;2.60;99.90
36552;DHT22;22559;54.176;12.102;2023-04-07T05:25:45;2.50;99.90
36552;DHT22;22559;54.176;12.102;2023-04-07T05:28:11;2.50;99.90
36552;DHT22;22559;54.176;12.102;2023-04-07T05:30:37;2.50;99.90
36552;DHT22;22559;54.176;12.102;2023-04-07T05:33:02;2.40;99.90
36552;DHT22;22559;54.176;12.102;2023-04-07T05:35:28;2.40;99.90
36552;DHT22;22559;54.176;12.102;2023-04-07T05:37:53;2.40;99.90
36552;DHT22;22559;54.176;12.102;2023-04-07T05:40:19;2.40;99.90
36552;DHT22;22559;54.176;12.102;2023-04-07T05:42:45;2.50;99.90
36552;DHT22;22559;54.176;12.102;2023-04-07T05:45:10;2.50;99.90
36552;DHT22;22559;54.176;12.102;2023-04-07T05:47:36;2.50;99.90
36552;DHT22;22559;54.176;12.102;2023-04-07T05:50:02;2.60;99.90
36552;DHT22;22559;54.176;12.102;2023-04-07T05:52:27;2.60;99.90
36552;DHT22;22559;54.176;12.102;2023-04-07T05:54:53;2.60;99.90
36552;DHT22;22559;54.176;12.102;2023-04-07T05:57:19;2.60;99.90
36552;DHT22;22559;54.176;12.102;2023-04-07T05:59:44;2.60;99.90
36552;DHT22;22559;54.176;12.102;2023-04-07T06:02:10;2.70;99.90
36552;DHT22;22559;54.176;12.102;2023-04-07T06:04:36;2.70;99.90
36552;DHT22;22559;54.176;12.102;2023-04-07T06:07:03;2.80;99.90
36552;DHT22;22559;54.176;12.102;2023-04-07T06:09:29;3.00;99.90
36552;DHT22;22559;54.176;12.102;2023-04-07T06:11:55;3.10;99.90
36552;DHT22;22559;54.176;12.102;2023-04-07T06:14:21;3.10;99.90
36552;DHT22;22559;54.176;12.102;2023-04-07T06:16:46;3.20;99.90
36552;DHT22;22559;54.176;12.102;2023-04-07T06:19:12;3.30;99.90
36552;DHT22;22559;54.176;12.102;2023-04-07T06:21:38;3.50;99.90
36552;DHT22;22559;54.176;12.102;2023-04-07T06:24:04;3.60;99.90
36552;DHT22;22559;54.176;12.102;2023-04-07T06:26:31;3.70;99.90
36552;DHT22;22559;54.176;12.102;2023-04-07T06:28:57;3.80;99.90
36552;DHT22;22559;54.176;12.102;2023-04-07T06:31:23;3.90;99.90
36552;DHT22;22559;54.176;12.102;2023-04-07T06:33:49;4.10;99.90
36552;DHT22;22559;54.176;12.102;2023-04-07T06:36:15;4.20;99.90
36552;DHT22;22559;54.176;12.102;2023-04-07T06:38:41;4.30;99.90
36552;DHT22;22559;54.176;12.102;2023-04-07T06:41:06;4.40;99.90
36552;DHT22;22559;54.176;12.102;2023-04-07T06:43:36;4.60;99.90
36552;DHT22;22559;54.176;12.102;2023-04-07T06:46:02;4.80;99.90
36552;DHT22;22559;54.176;12.102;2023-04-07T06:48:27;5.00;99.90
36552;DHT22;22559;54.176;12.102;2023-04-07T06:50:53;5.20;99.90
36552;DHT22;22559;54.176;12.102;2023-04-07T06:53:19;5.30;99.90
36552;DHT22;22559;54.176;12.102;2023-04-07T06:55:44;5.60;99.90
36552;DHT22;22559;54.176;12.102;2023-04-07T06:58:10;5.60;99.90
36552;DHT22;22559;54.176;12.102;2023-04-07T07:00:36;5.80;99.90
36552;DHT22;22559;54.176;12.102;2023-04-07T07:03:02;6.00;99.90
36552;DHT22;22559;54.176;12.102;2023-04-07T07:05:27;6.20;99.90
36552;DHT22;22559;54.176;12.102;2023-04-07T07:07:53;6.50;99.90
36552;DHT22;22559;54.176;12.102;2023-04-07T07:10:19;6.60;99.90
36552;DHT22;22559;54.176;12.102;2023-04-07T07:12:47;6.70;99.90
36552;DHT22;22559;54.176;12.102;2023-04-07T07:15:13;6.90;99.90
36552;DHT22;22559;54.176;12.102;2023-04-07T07:17:38;6.90;99.90
36552;DHT22;22559;54.176;12.102;2023-04-07T07:20:05;6.90;99.90
36552;DHT22;22559;54.176;12.102;2023-04-07T07:22:30;6.90;99.90
36552;DHT22;22559;54.176;12.102;2023-04-07T07:24:56;6.80;99.90
36552;DHT22;22559;54.176;12.102;2023-04-07T07:27:22;6.70;99.90
36552;DHT22;22559;54.176;12.102;2023-04-07T07:29:53;6.60;99.90
36552;DHT22;22559;54.176;12.102;2023-04-07T07:32:29;6.70;99.90
36552;DHT22;22559;54.176;12.102;2023-04-07T07:34:55;6.60;99.90
36552;DHT22;22559;54.176;12.102;2023-04-07T07:37:23;6.80;99.90
36552;DHT22;22559;54.176;12.102;2023-04-07T07:39:49;6.80;99.90
36552;DHT22;22559;54.176;12.102;2023-04-07T07:42:15;7.00;99.90
36552;DHT22;22559;54.176;12.102;2023-04-07T07:44:43;7.00;99.90
36552;DHT22;22559;54.176;12.102;2023-04-07T07:47:09;7.10;99.90
36552;DHT22;22559;54.176;12.102;2023-04-07T07:49:36;7.20;99.90
36552;DHT22;22559;54.176;12.102;2023-04-07T07:52:02;7.40;99.90
36552;DHT22;22559;54.176;12.102;2023-04-07T07:54:28;7.70;99.90
36552;DHT22;22559;54.176;12.102;2023-04-07T07:56:53;7.80;99.90
36552;DHT22;22559;54.176;12.102;2023-04-07T07:59:19;7.90;99.90
36552;DHT22;22559;54.176;12.102;2023-04-07T08:01:45;8.10;99.90
36552;DHT22;22559;54.176;12.102;2023-04-07T08:04:11;8.30;99.90
36552;DHT22;22559;54.176;12.102;2023-04-07T08:06:37;8.60;99.90
36552;DHT22;22559;54.176;12.102;2023-04-07T08:09:02;8.70;99.90
36552;DHT22;22559;54.176;12.102;2023-04-07T08:11:28;8.80;99.90
36552;DHT22;22559;54.176;12.102;2023-04-07T08:13:54;8.90;99.90
36552;DHT22;22559;54.176;12.102;2023-04-07T08:16:19;8.90;99.90
36552;DHT22;22559;54.176;12.102;2023-04-07T08:18:46;8.80;99.90
36552;DHT22;22559;54.176;12.102;2023-04-07T08:21:12;9.10;99.90
36552;DHT22;22559;54.176;12.102;2023-04-07T08:23:38;9.50;99.90
36552;DHT22;22559;54.176;12.102;2023-04-07T08:26:04;9.70;99.90
36552;DHT22;22559;54.176;12.102;2023-04-07T08:28:29;10.10;99.90
36552;DHT22;22559;54.176;12.102;2023-04-07T08:30:55;10.80;99.90
36552;DHT22;22559;54.176;12.102;2023-04-07T08:33:21;11.30;99.90
36552;DHT22;22559;54.176;12.102;2023-04-07T08:35:46;11.10;99.90
36552;DHT22;22559;54.176;12.102;2023-04-07T08:38:12;11.40;99.90
36552;DHT22;22559;54.176;12.102;2023-04-07T08:40:38;11.00;99.90
36552;DHT22;22559;54.176;12.102;2023-04-07T08:43:08;10.70;99.90
36552;DHT22;22559;54.176;12.102;2023-04-07T08:45:38;10.50;99.90
36552;DHT22;22559;54.176;12.102;2023-04-07T08:48:15;10.30;99.90
36552;DHT22;22559;54.176;12.102;2023-04-07T08:50:44;10.30;99.90
36552;DHT22;22559;54.176;12.102;2023-04-07T08:53:12;10.50;99.90
36552;DHT22;22559;54.176;12.102;2023-04-07T08:55:41;10.40;99.90
36552;DHT22;22559;54.176;12.102;2023-04-07T08:58:09;10.10;99.90
36552;DHT22;22559;54.176;12.102;2023-04-07T09:00:42;10.00;99.90
36552;DHT22;22559;54.176;12.102;2023-04-07T09:03:10;10.10;99.90
36552;DHT22;22559;54.176;12.102;2023-04-07T09:05:36;10.30;99.90
36552;DHT22;22559;54.176;12.102;2023-04-07T09:08:02;10.40;99.90
36552;DHT22;22559;54.176;12.102;2023-04-07T09:10:28;10.40;99.90
36552;DHT22;22559;54.176;12.102;2023-04-07T09:12:53;10.60;99.90
36552;DHT22;22559;54.176;12.102;2023-04-07T09:15:20;10.70;99.90
36552;DHT22;22559;54.176;12.102;2023-04-07T09:17:46;10.90;99.90
36552;DHT22;22559;54.176;12.102;2023-04-07T09:20:12;11.10;99.90
36552;DHT22;22559;54.176;12.102;2023-04-07T09:22:42;11.10;99.90
36552;DHT22;22559;54.176;12.102;2023-04-07T09:25:23;10.80;99.90
36552;DHT22;22559;54.176;12.102;2023-04-07T09:28:03;10.50;99.90
36552;DHT22;22559;54.176;12.102;2023-04-07T09:30:31;10.10;99.90
36552;DHT22;22559;54.176;12.102;2023-04-07T09:32:58;10.00;99.90
36552;DHT22;22559;54.176;12.102;2023-04-07T09:35:24;9.90;99.90
36552;DHT22;22559;54.176;12.102;2023-04-07T09:38:20;9.70;99.90
36552;DHT22;22559;54.176;12.102;2023-04-07T09:40:45;9.60;99.90
36552;DHT22;22559;54.176;12.102;2023-04-07T09:43:17;9.50;99.90
36552;DHT22;22559;54.176;12.102;2023-04-07T09:45:43;9.60;99.90
36552;DHT22;22559;54.176;12.102;2023-04-07T09:48:18;9.60;99.90
36552;DHT22;22559;54.176;12.102;2023-04-07T09:50:44;9.50;99.90
36552;DHT22;22559;54.176;12.102;2023-04-07T09:53:14;9.40;99.90
36552;DHT22;22559;54.176;12.102;2023-04-07T09:55:41;9.30;99.90
36552;DHT22;22559;54.176;12.102;2023-04-07T09:58:07;9.30;99.90
36552;DHT22;22559;54.176;12.102;2023-04-07T10:00:34;9.30;99.90
36552;DHT22;22559;54.176;12.102;2023-04-07T10:03:02;9.10;99.90
36552;DHT22;22559;54.176;12.102;2023-04-07T10:05:28;9.00;99.90
36552;DHT22;22559;54.176;12.102;2023-04-07T10:07:55;8.90;99.90
36552;DHT22;22559;54.176;12.102;2023-04-07T10:10:21;8.80;99.90
36552;DHT22;22559;54.176;12.102;2023-04-07T10:12:49;8.80;99.90
36552;DHT22;22559;54.176;12.102;2023-04-07T10:15:15;8.70;99.90
36552;DHT22;22559;54.176;12.102;2023-04-07T10:17:45;8.50;99.90
36552;DHT22;22559;54.176;12.102;2023-04-07T10:20:13;8.40;99.90
36552;DHT22;22559;54.176;12.102;2023-04-07T10:22:40;8.30;99.90
36552;DHT22;22559;54.176;12.102;2023-04-07T10:25:12;8.40;99.90
36552;DHT22;22559;54.176;12.102;2023-04-07T10:27:59;8.30;99.90
36552;DHT22;22559;54.176;12.102;2023-04-07T10:30:30;8.20;99.90
36552;DHT22;22559;54.176;12.102;2023-04-07T10:32:57;8.10;99.90
36552;DHT22;22559;54.176;12.102;2023-04-07T10:35:24;8.00;99.90
36552;DHT22;22559;54.176;12.102;2023-04-07T10:38:10;8.00;99.90
36552;DHT22;22559;54.176;12.102;2023-04-07T10:40:38;8.00;99.90
36552;DHT22;22559;54.176;12.102;2023-04-07T10:43:05;8.10;99.90
36552;DHT22;22559;54.176;12.102;2023-04-07T10:48:15;8.00;99.90
36552;DHT22;22559;54.176;12.102;2023-04-07T10:50:41;7.90;99.90
36552;DHT22;22559;54.176;12.102;2023-04-07T10:53:08;7.90;99.90
36552;DHT22;22559;54.176;12.102;2023-04-07T10:55:38;7.80;99.90
36552;DHT22;22559;54.176;12.102;2023-04-07T10:58:14;7.80;99.90
36552;DHT22;22559;54.176;12.102;2023-04-07T11:00:40;7.70;99.90
36552;DHT22;22559;54.176;12.102;2023-04-07T11:03:12;7.60;99.90
36552;DHT22;22559;54.176;12.102;2023-04-07T11:05:39;7.60;99.90
36552;DHT22;22559;54.176;12.102;2023-04-07T11:08:05;7.50;99.90
36552;DHT22;22559;54.176;12.102;2023-04-07T11:10:32;7.40;99.90
36552;DHT22;22559;54.176;12.102;2023-04-07T11:15:29;7.30;99.90
36552;DHT22;22559;54.176;12.102;2023-04-07T11:23:10;7.20;99.90
36552;DHT22;22559;54.176;12.102;2023-04-07T11:25:36;7.30;99.90
36552;DHT22;22559;54.176;12.102;2023-04-07T11:28:05;7.30;99.90
36552;DHT22;22559;54.176;12.102;2023-04-07T11:30:31;7.20;99.90
36552;DHT22;22559;54.176;12.102;2023-04-07T11:32:57;7.20;99.90
36552;DHT22;22559;54.176;12.102;2023-04-07T11:35:23;7.30;99.90
36552;DHT22;22559;54.176;12.102;2023-04-07T11:37:55;7.40;99.90
36552;DHT22;22559;54.176;12.102;2023-04-07T11:40:35;7.50;99.90
36552;DHT22;22559;54.176;12.102;2023-04-07T11:43:02;7.50;99.90
36552;DHT22;22559;54.176;12.102;2023-04-07T11:45:39;7.50;99.90
36552;DHT22;22559;54.176;12.102;2023-04-07T11:48:24;7.50;99.90
36552;DHT22;22559;54.176;12.102;2023-04-07T11:50:49;7.50;99.90
36552;DHT22;22559;54.176;12.102;2023-04-07T11:53:34;7.50;99.90
36552;DHT22;22559;54.176;12.102;2023-04-07T11:56:05;7.30;99.90
36552;DHT22;22559;54.176;12.102;2023-04-07T11:58:32;7.20;99.90
36552;DHT22;22559;54.176;12.102;2023-04-07T12:00:59;7.30;99.90
36552;DHT22;22559;54.176;12.102;2023-04-07T12:03:29;7.20;99.90
36552;DHT22;22559;54.176;12.102;2023-04-07T12:05:55;7.10;99.90
36552;DHT22;22559;54.176;12.102;2023-04-07T12:08:42;7.10;99.90
36552;DHT22;22559;54.176;12.102;2023-04-07T12:11:09;7.10;99.90
36552;DHT22;22559;54.176;12.102;2023-04-07T12:13:35;7.10;99.90
36552;DHT22;22559;54.176;12.102;2023-04-07T12:16:02;6.90;99.90
36552;DHT22;22559;54.176;12.102;2023-04-07T12:18:28;6.90;99.90
36552;DHT22;22559;54.176;12.102;2023-04-07T12:20:54;6.80;99.90
36552;DHT22;22559;54.176;12.102;2023-04-07T12:23:21;6.80;99.90
36552;DHT22;22559;54.176;12.102;2023-04-07T12:25:47;6.70;99.90
36552;DHT22;22559;54.176;12.102;2023-04-07T12:28:12;6.70;99.90
36552;DHT22;22559;54.176;12.102;2023-04-07T12:30:38;6.70;99.90
36552;DHT22;22559;54.176;12.102;2023-04-07T12:33:04;6.60;99.90
36552;DHT22;22559;54.176;12.102;2023-04-07T12:35:29;6.60;99.90
36552;DHT22;22559;54.176;12.102;2023-04-07T12:37:55;6.70;99.90
36552;DHT22;22559;54.176;12.102;2023-04-07T12:40:22;6.70;99.90
36552;DHT22;22559;54.176;12.102;2023-04-07T12:42:47;6.70;99.90
36552;DHT22;22559;54.176;12.102;2023-04-07T12:45:13;6.60;99.90
36552;DHT22;22559;54.176;12.102;2023-04-07T12:47:39;6.70;99.90
36552;DHT22;22559;54.176;12.102;2023-04-07T12:50:05;6.80;99.90
36552;DHT22;22559;54.176;12.102;2023-04-07T12:52:31;6.70;99.90
36552;DHT22;22559;54.176;12.102;2023-04-07T12:54:57;6.70;99.90
36552;DHT22;22559;54.176;12.102;2023-04-07T12:57:23;6.70;99.90
36552;DHT22;22559;54.176;12.102;2023-04-07T12:59:49;6.70;99.90
36552;DHT22;22559;54.176;12.102;2023-04-07T13:02:16;6.70;99.90
36552;DHT22;22559;54.176;12.102;2023-04-07T13:04:43;6.70;99.90
36552;DHT22;22559;54.176;12.102;2023-04-07T13:07:11;6.70;99.90
36552;DHT22;22559;54.176;12.102;2023-04-07T13:09:38;6.70;99.90
36552;DHT22;22559;54.176;12.102;2023-04-07T13:12:03;6.70;99.90
36552;DHT22;22559;54.176;12.102;2023-04-07T13:14:29;6.70;99.90
36552;DHT22;22559;54.176;12.102;2023-04-07T13:16:54;6.80;99.90
36552;DHT22;22559;54.176;12.102;2023-04-07T13:19:20;6.70;99.90
36552;DHT22;22559;54.176;12.102;2023-04-07T13:21:46;6.70;99.90
36552;DHT22;22559;54.176;12.102;2023-04-07T13:24:12;6.60;99.90
36552;DHT22;22559;54.176;12.102;2023-04-07T13:26:37;6.50;99.90
36552;DHT22;22559;54.176;12.102;2023-04-07T13:29:03;6.50;99.90
36552;DHT22;22559;54.176;12.102;2023-04-07T13:31:28;6.50;99.90
36552;DHT22;22559;54.176;12.102;2023-04-07T13:33:54;6.50;99.90
36552;DHT22;22559;54.176;12.102;2023-04-07T13:36:21;6.60;99.90
36552;DHT22;22559;54.176;12.102;2023-04-07T13:38:47;6.60;99.90
36552;DHT22;22559;54.176;12.102;2023-04-07T13:41:12;6.60;99.90
36552;DHT22;22559;54.176;12.102;2023-04-07T13:43:38;6.60;99.90
36552;DHT22;22559;54.176;12.102;2023-04-07T13:46:03;6.60;99.90
36552;DHT22;22559;54.176;12.102;2023-04-07T13:48:29;6.60;99.90
36552;DHT22;22559;54.176;12.102;2023-04-07T13:50:55;6.60;99.90
36552;DHT22;22559;54.176;12.102;2023-04-07T13:53:21;6.60;99.90
36552;DHT22;22559;54.176;12.102;2023-04-07T13:55:47;6.60;99.90
36552;DHT22;22559;54.176;12.102;2023-04-07T13:58:13;6.50;99.90
36552;DHT22;22559;54.176;12.102;2023-04-07T14:00:38;6.50;99.90
36552;DHT22;22559;54.176;12.102;2023-04-07T14:03:05;6.60;99.90
36552;DHT22;22559;54.176;12.102;2023-04-07T14:05:30;6.60;99.90
36552;DHT22;22559;54.176;12.102;2023-04-07T14:07:56;6.60;99.90
36552;DHT22;22559;54.176;12.102;2023-04-07T14:10:22;6.60;99.90
36552;DHT22;22559;54.176;12.102;2023-04-07T14:12:47;6.60;99.90
36552;DHT22;22559;54.176;12.102;2023-04-07T14:15:13;6.60;99.90
36552;DHT22;22559;54.176;12.102;2023-04-07T14:17:38;6.60;99.90
36552;DHT22;22559;54.176;12.102;2023-04-07T14:20:05;6.50;99.90
36552;DHT22;22559;54.176;12.102;2023-04-07T14:22:31;6.50;99.90
36552;DHT22;22559;54.176;12.102;2023-04-07T14:24:57;6.50;99.90
36552;DHT22;22559;54.176;12.102;2023-04-07T14:27:22;6.50;99.90
36552;DHT22;22559;54.176;12.102;2023-04-07T14:29:48;6.50;99.90
36552;DHT22;22559;54.176;12.102;2023-04-07T14:32:15;6.50;99.90
36552;DHT22;22559;54.176;12.102;2023-04-07T14:34:40;6.40;99.90
36552;DHT22;22559;54.176;12.102;2023-04-07T14:37:06;6.40;99.90
36552;DHT22;22559;54.176;12.102;2023-04-07T14:39:31;6.30;99.90
36552;DHT22;22559;54.176;12.102;2023-04-07T14:41:57;6.40;99.90
36552;DHT22;22559;54.176;12.102;2023-04-07T14:44:23;6.40;99.90
36552;DHT22;22559;54.176;12.102;2023-04-07T14:46:48;6.40;99.90
36552;DHT22;22559;54.176;12.102;2023-04-07T14:49:14;6.30;99.90
36552;DHT22;22559;54.176;12.102;2023-04-07T14:51:40;6.30;99.90
36552;DHT22;22559;54.176;12.102;2023-04-07T14:54:05;6.20;99.90
36552;DHT22;22559;54.176;12.102;2023-04-07T14:56:32;6.40;99.90
36552;DHT22;22559;54.176;12.102;2023-04-07T14:58:57;6.40;99.90
36552;DHT22;22559;54.176;12.102;2023-04-07T15:01:23;6.30;99.90
36552;DHT22;22559;54.176;12.102;2023-04-07T15:03:50;6.30;99.90
36552;DHT22;22559;54.176;12.102;2023-04-07T15:06:17;6.30;99.90
36552;DHT22;22559;54.176;12.102;2023-04-07T15:08:43;6.30;99.90
36552;DHT22;22559;54.176;12.102;2023-04-07T15:11:09;6.30;99.90
36552;DHT22;22559;54.176;12.102;2023-04-07T15:13:35;6.40;99.90
36552;DHT22;22559;54.176;12.102;2023-04-07T15:16:11;6.40;99.90
36552;DHT22;22559;54.176;12.102;2023-04-07T15:18:42;6.30;99.90
36552;DHT22;22559;54.176;12.102;2023-04-07T15:21:09;6.20;99.90
36552;DHT22;22559;54.176;12.102;2023-04-07T15:23:38;6.20;99.90
36552;DHT22;22559;54.176;12.102;2023-04-07T15:26:07;6.10;99.90
36552;DHT22;22559;54.176;12.102;2023-04-07T15:28:33;6.10;99.90
36552;DHT22;22559;54.176;12.102;2023-04-07T15:30:59;6.10;99.90
36552;DHT22;22559;54.176;12.102;2023-04-07T15:33:25;6.10;99.90
36552;DHT22;22559;54.176;12.102;2023-04-07T15:35:51;6.10;99.90
36552;DHT22;22559;54.176;12.102;2023-04-07T15:38:17;6.10;99.90
36552;DHT22;22559;54.176;12.102;2023-04-07T15:40:43;6.10;99.90
36552;DHT22;22559;54.176;12.102;2023-04-07T15:43:08;6.10;99.90
36552;DHT22;22559;54.176;12.102;2023-04-07T15:45:41;6.10;99.90
36552;DHT22;22559;54.176;12.102;2023-04-07T15:48:07;6.10;99.90
36552;DHT22;22559;54.176;12.102;2023-04-07T15:50:33;6.10;99.90